createdAt,value
2018-11-25T00:00:42.159Z,4.70
2018-11-25T00:03:10.540Z,4.70
2018-11-25T00:05:38.859Z,4.70
2018-11-25T00:08:07.184Z,4.60
2018-11-25T00:10:35.795Z,4.60
2018-11-25T00:13:04.356Z,4.60
2018-11-25T00:15:32.899Z,4.60
2018-11-25T00:18:01.455Z,4.60
2018-11-25T00:20:29.778Z,4.60
2018-11-25T00:22:58.223Z,4.60
2018-11-25T00:25:26.951Z,4.70
2018-11-25T00:27:55.553Z,4.60
2018-11-25T00:30:24.242Z,4.60
2018-11-25T00:32:52.533Z,4.60
2018-11-25T00:35:20.852Z,4.60
2018-11-25T00:37:49.345Z,4.60
2018-11-25T00:40:17.741Z,4.60
2018-11-25T00:42:46.397Z,4.60
2018-11-25T00:45:18.077Z,4.60
2018-11-25T00:47:46.590Z,4.60
2018-11-25T00:50:15.140Z,4.60
2018-11-25T00:52:43.706Z,4.50
2018-11-25T00:55:15.204Z,4.50
2018-11-25T00:57:43.569Z,4.50
2018-11-25T01:00:15.543Z,4.50
2018-11-25T01:02:43.985Z,4.50
2018-11-25T01:05:13.477Z,4.40
2018-11-25T01:07:42.197Z,4.50
2018-11-25T01:10:12.165Z,4.50
2018-11-25T01:12:40.789Z,4.50
2018-11-25T01:15:12.347Z,4.50
2018-11-25T01:17:41.319Z,4.50
2018-11-25T01:20:11.911Z,4.70
2018-11-25T01:22:41.059Z,4.80
2018-11-25T01:25:10.613Z,4.80
2018-11-25T01:27:39.070Z,4.90
2018-11-25T01:30:13.273Z,4.90
2018-11-25T01:32:41.561Z,4.90
2018-11-25T01:35:11.354Z,4.80
2018-11-25T01:37:40.228Z,4.80
2018-11-25T01:40:14.554Z,4.70
2018-11-25T01:42:43.059Z,4.70
2018-11-25T01:45:15.197Z,4.70
2018-11-25T01:47:43.516Z,4.80
2018-11-25T01:50:12.855Z,4.80
2018-11-25T01:52:41.125Z,4.80
2018-11-25T01:55:13.301Z,4.70
2018-11-25T01:57:41.625Z,4.60
2018-11-25T02:00:14.698Z,4.60
2018-11-25T02:02:42.989Z,4.70
2018-11-25T02:05:11.313Z,4.80
2018-11-25T02:07:39.627Z,4.80
2018-11-25T02:10:09.969Z,4.80
2018-11-25T02:12:38.286Z,4.80
2018-11-25T02:15:08.054Z,4.90
2018-11-25T02:17:36.417Z,4.80
2018-11-25T02:20:10.541Z,4.80
2018-11-25T02:22:38.871Z,4.80
2018-11-25T02:25:07.458Z,4.90
2018-11-25T02:27:35.873Z,4.90
2018-11-25T02:30:04.634Z,5.00
2018-11-25T02:32:32.946Z,4.90
2018-11-25T02:35:01.275Z,4.90
2018-11-25T02:37:29.597Z,5.00
2018-11-25T02:39:58.568Z,5.00
2018-11-25T02:42:26.886Z,5.10
2018-11-25T02:44:55.194Z,5.00
2018-11-25T02:47:23.527Z,5.00
2018-11-25T02:49:51.835Z,5.00
2018-11-25T02:52:20.140Z,5.00
2018-11-25T02:54:48.449Z,4.90
2018-11-25T02:57:20.987Z,4.80
2018-11-25T02:59:49.282Z,4.90
2018-11-25T03:02:17.585Z,4.90
2018-11-25T03:04:45.885Z,4.90
2018-11-25T03:07:14.193Z,4.90
2018-11-25T03:09:43.185Z,4.80
2018-11-25T03:12:13.739Z,4.80
2018-11-25T03:14:42.034Z,4.80
2018-11-25T03:17:10.925Z,4.80
2018-11-25T03:19:39.250Z,4.80
2018-11-25T03:22:08.482Z,4.70
2018-11-25T03:24:37.322Z,4.70
2018-11-25T03:27:05.626Z,4.60
2018-11-25T03:29:34.545Z,4.60
2018-11-25T03:32:03.633Z,4.60
2018-11-25T03:34:31.929Z,4.60
2018-11-25T03:37:00.277Z,4.60
2018-11-25T03:39:28.625Z,4.60
2018-11-25T03:41:56.953Z,4.60
2018-11-25T03:44:25.233Z,4.70
2018-11-25T03:46:53.554Z,4.70
2018-11-25T03:49:21.862Z,4.80
2018-11-25T03:51:50.167Z,4.70
2018-11-25T03:54:18.949Z,4.70
2018-11-25T03:56:47.281Z,4.70
2018-11-25T03:59:15.664Z,4.70
2018-11-25T04:01:43.951Z,4.70
2018-11-25T04:04:12.326Z,4.70
2018-11-25T04:06:40.620Z,4.70
2018-11-25T04:09:09.321Z,4.70
2018-11-25T04:11:37.771Z,4.70
2018-11-25T04:14:06.133Z,4.60
2018-11-25T04:16:34.426Z,4.60
2018-11-25T04:19:02.747Z,4.50
2018-11-25T04:21:31.046Z,4.50
2018-11-25T04:23:59.341Z,4.50
2018-11-25T04:26:27.834Z,4.50
2018-11-25T04:28:56.146Z,4.50
2018-11-25T04:31:24.557Z,4.50
2018-11-25T04:33:52.906Z,4.50
2018-11-25T04:36:22.182Z,4.50
2018-11-25T04:38:50.490Z,4.40
2018-11-25T04:41:18.821Z,4.40
2018-11-25T04:43:48.034Z,4.40
2018-11-25T04:46:16.346Z,4.40
2018-11-25T04:48:44.659Z,4.50
2018-11-25T04:51:12.949Z,4.50
2018-11-25T04:53:41.254Z,4.50
2018-11-25T04:56:09.557Z,4.40
2018-11-25T04:58:37.851Z,4.40
2018-11-25T05:01:06.200Z,4.40
2018-11-25T05:03:35.336Z,4.40
2018-11-25T05:06:03.629Z,4.40
2018-11-25T05:08:31.943Z,4.40
2018-11-25T05:11:00.315Z,4.40
2018-11-25T05:13:28.635Z,4.40
2018-11-25T05:15:56.971Z,4.50
2018-11-25T05:18:25.245Z,4.50
2018-11-25T05:20:53.533Z,4.40
2018-11-25T05:23:21.853Z,4.40
2018-11-25T05:25:50.182Z,4.40
2018-11-25T05:28:18.472Z,4.40
2018-11-25T05:30:46.775Z,4.40
2018-11-25T05:33:15.106Z,4.40
2018-11-25T05:35:43.418Z,4.40
2018-11-25T05:38:11.731Z,4.40
2018-11-25T05:40:40.029Z,4.40
2018-11-25T05:43:08.348Z,4.50
2018-11-25T05:45:36.707Z,4.50
2018-11-25T05:48:05.087Z,4.50
2018-11-25T05:50:33.434Z,4.70
2018-11-25T05:53:01.751Z,4.70
2018-11-25T05:55:30.090Z,4.60
2018-11-25T05:57:58.414Z,4.70
2018-11-25T06:00:30.023Z,4.60
2018-11-25T06:02:58.377Z,4.50
2018-11-25T06:05:26.693Z,4.50
2018-11-25T06:07:55.899Z,4.50
2018-11-25T06:10:24.382Z,4.50
2018-11-25T06:12:52.795Z,4.40
2018-11-25T06:15:21.147Z,4.40
2018-11-25T06:17:49.476Z,4.40
2018-11-25T06:20:18.173Z,4.40
2018-11-25T06:22:46.812Z,4.40
2018-11-25T06:25:18.129Z,4.40
2018-11-25T06:27:46.442Z,4.50
2018-11-25T06:30:16.792Z,4.40
2018-11-25T06:32:45.820Z,4.40
2018-11-25T06:35:14.938Z,4.40
2018-11-25T06:37:43.247Z,4.60
2018-11-25T06:40:17.991Z,4.50
2018-11-25T06:42:46.335Z,4.50
2018-11-25T06:45:17.031Z,4.50
2018-11-25T06:47:45.392Z,4.50
2018-11-25T06:50:13.722Z,4.50
2018-11-25T06:52:42.068Z,4.50
2018-11-25T06:55:11.418Z,4.40
2018-11-25T06:57:39.711Z,4.40
2018-11-25T07:00:15.702Z,4.40
2018-11-25T07:02:44.062Z,4.40
2018-11-25T07:05:12.416Z,4.40
2018-11-25T07:07:40.720Z,4.40
2018-11-25T07:10:14.577Z,4.40
2018-11-25T07:12:49.729Z,4.40
2018-11-25T07:15:18.582Z,4.40
2018-11-25T07:17:46.958Z,4.40
2018-11-25T07:20:15.981Z,4.40
2018-11-25T07:22:44.414Z,4.40
2018-11-25T07:25:14.606Z,4.40
2018-11-25T07:27:42.920Z,4.40
2018-11-25T07:30:17.300Z,4.40
2018-11-25T07:32:45.671Z,4.40
2018-11-25T07:35:13.994Z,4.40
2018-11-25T07:37:42.355Z,4.40
2018-11-25T07:40:12.899Z,4.50
2018-11-25T07:42:41.352Z,4.40
2018-11-25T07:45:12.035Z,4.40
2018-11-25T07:47:44.010Z,4.50
2018-11-25T07:50:13.869Z,4.40
2018-11-25T07:52:43.147Z,4.50
2018-11-25T07:55:17.542Z,4.50
2018-11-25T07:57:46.900Z,4.50
2018-11-25T08:00:16.988Z,4.50
2018-11-25T08:02:45.649Z,4.60
2018-11-25T08:05:15.089Z,4.50
2018-11-25T08:07:49.582Z,4.50
2018-11-25T08:10:18.299Z,4.50
2018-11-25T08:12:46.997Z,4.60
2018-11-25T08:15:17.049Z,4.60
2018-11-25T08:17:46.291Z,4.60
2018-11-25T08:20:17.194Z,4.60
2018-11-25T08:22:45.545Z,4.60
2018-11-25T08:25:16.573Z,4.60
2018-11-25T08:27:45.409Z,4.70
2018-11-25T08:30:21.997Z,4.70
2018-11-25T08:32:50.670Z,4.70
2018-11-25T08:35:22.214Z,4.90
2018-11-25T08:37:50.874Z,4.90
2018-11-25T08:40:22.989Z,4.90
2018-11-25T08:42:51.534Z,4.80
2018-11-25T08:45:20.144Z,4.80
2018-11-25T08:47:49.923Z,5.00
2018-11-25T08:50:19.333Z,5.00
2018-11-25T08:52:49.794Z,4.90
2018-11-25T08:55:20.163Z,4.80
2018-11-25T08:57:49.132Z,4.70
2018-11-25T09:00:19.384Z,4.70
2018-11-25T09:02:48.567Z,4.80
2018-11-25T09:05:20.909Z,4.80
2018-11-25T09:07:50.085Z,4.80
2018-11-25T09:10:20.246Z,4.80
2018-11-25T09:12:56.068Z,4.80
2018-11-25T09:15:23.889Z,4.70
2018-11-25T09:17:52.392Z,4.80
2018-11-25T09:20:21.705Z,4.80
2018-11-25T09:22:50.589Z,4.80
2018-11-25T09:25:25.392Z,4.80
2018-11-25T09:27:53.829Z,4.90
2018-11-25T09:30:23.361Z,4.90
2018-11-25T09:32:51.702Z,5.00
2018-11-25T09:35:20.014Z,5.10
2018-11-25T09:37:48.304Z,5.00
2018-11-25T09:40:17.600Z,5.10
2018-11-25T09:42:45.905Z,5.10
2018-11-25T09:45:14.961Z,5.10
2018-11-25T09:47:43.498Z,5.10
2018-11-25T09:50:16.740Z,5.10
2018-11-25T09:52:45.048Z,5.10
2018-11-25T09:55:15.085Z,5.10
2018-11-25T09:57:44.477Z,5.10
2018-11-25T10:00:15.978Z,5.20
2018-11-25T10:02:44.493Z,5.20
2018-11-25T10:05:13.394Z,5.20
2018-11-25T10:07:42.313Z,5.30
2018-11-25T10:10:13.854Z,5.30
2018-11-25T10:12:42.473Z,5.30
2018-11-25T10:15:13.002Z,5.40
2018-11-25T10:17:42.896Z,5.40
2018-11-25T10:20:18.322Z,5.50
2018-11-25T10:22:47.278Z,5.50
2018-11-25T10:25:16.528Z,5.50
2018-11-25T10:27:45.545Z,5.50
2018-11-25T10:30:18.085Z,5.50
2018-11-25T10:32:47.628Z,5.50
2018-11-25T10:35:16.006Z,5.50
2018-11-25T10:37:44.514Z,5.50
2018-11-25T10:40:16.028Z,5.50
2018-11-25T10:42:46.001Z,5.60
2018-11-25T10:45:21.399Z,5.70
2018-11-25T10:47:50.278Z,5.70
2018-11-25T10:50:19.681Z,5.70
2018-11-25T10:52:48.729Z,5.70
2018-11-25T10:55:17.974Z,5.70
2018-11-25T10:57:48.159Z,5.70
2018-11-25T11:00:25.847Z,5.70
2018-11-25T11:02:59.477Z,5.70
2018-11-25T11:05:33.336Z,5.70
2018-11-25T11:08:01.664Z,5.80
2018-11-25T11:10:30.015Z,5.70
2018-11-25T11:12:58.919Z,5.70
2018-11-25T11:15:26.707Z,5.60
2018-11-25T11:17:55.036Z,5.70
2018-11-25T11:20:23.405Z,5.70
2018-11-25T11:22:51.714Z,5.70
2018-11-25T11:25:20.041Z,5.80
2018-11-25T11:27:48.418Z,5.80
2018-11-25T11:30:16.760Z,5.80
2018-11-25T11:32:46.377Z,5.70
2018-11-25T11:35:14.737Z,5.70
2018-11-25T11:37:43.025Z,5.80
2018-11-25T11:40:12.377Z,5.70
2018-11-25T11:42:41.179Z,5.80
2018-11-25T11:45:10.917Z,5.80
2018-11-25T11:47:39.185Z,5.80
2018-11-25T11:50:12.841Z,5.80
2018-11-25T11:52:41.249Z,5.80
2018-11-25T11:55:11.006Z,5.70
2018-11-25T11:57:39.877Z,5.80
2018-11-25T12:00:26.702Z,5.80
2018-11-25T12:02:55.058Z,5.80
2018-11-25T12:05:23.367Z,5.70
2018-11-25T12:07:51.677Z,5.80
2018-11-25T12:10:20.146Z,5.80
2018-11-25T12:12:48.445Z,5.80
2018-11-25T12:15:20.092Z,5.80
2018-11-25T12:17:48.517Z,5.80
2018-11-25T12:20:16.879Z,5.80
2018-11-25T12:22:45.420Z,5.80
2018-11-25T12:25:15.637Z,5.80
2018-11-25T12:27:44.081Z,5.90
2018-11-25T12:30:13.229Z,5.90
2018-11-25T12:32:41.981Z,5.90
2018-11-25T12:35:11.309Z,5.90
2018-11-25T12:37:39.669Z,6.00
2018-11-25T12:40:10.435Z,5.80
2018-11-25T12:42:38.863Z,5.90
2018-11-25T12:45:14.273Z,6.00
2018-11-25T12:47:42.666Z,5.80
2018-11-25T12:50:15.875Z,5.80
2018-11-25T12:52:44.955Z,5.80
2018-11-25T12:55:15.348Z,5.80
2018-11-25T12:57:43.679Z,5.90
2018-11-25T13:00:19.282Z,5.90
2018-11-25T13:02:47.617Z,5.90
2018-11-25T13:05:16.038Z,5.90
2018-11-25T13:07:45.408Z,5.90
2018-11-25T13:10:13.761Z,5.90
2018-11-25T13:12:42.134Z,6.00
2018-11-25T13:15:10.476Z,6.00
2018-11-25T13:17:42.206Z,6.00
2018-11-25T13:20:12.533Z,6.00
2018-11-25T13:22:41.197Z,6.00
2018-11-25T13:25:10.815Z,6.10
2018-11-25T13:27:39.209Z,6.10
2018-11-25T13:30:20.274Z,6.10
2018-11-25T13:32:48.378Z,6.10
2018-11-25T13:35:16.744Z,6.00
2018-11-25T13:37:45.055Z,6.10
2018-11-25T13:40:14.389Z,6.20
2018-11-25T13:42:42.899Z,6.20
2018-11-25T13:45:12.022Z,6.10
2018-11-25T13:47:40.369Z,6.10
2018-11-25T13:50:10.703Z,6.10
2018-11-25T13:52:39.094Z,6.10
2018-11-25T13:55:09.890Z,6.20
2018-11-25T13:57:38.363Z,6.20
2018-11-25T14:00:12.033Z,6.20
2018-11-25T14:02:40.428Z,6.20
2018-11-25T14:05:08.812Z,6.10
2018-11-25T14:07:37.136Z,6.10
2018-11-25T14:10:10.078Z,6.20
2018-11-25T14:12:38.455Z,6.20
2018-11-25T14:15:09.397Z,6.10
2018-11-25T14:17:37.757Z,6.10
2018-11-25T14:20:07.965Z,6.10
2018-11-25T14:22:36.297Z,6.20
2018-11-25T14:25:05.838Z,6.20
2018-11-25T14:27:34.163Z,6.20
2018-11-25T14:30:02.508Z,6.20
2018-11-25T14:32:30.911Z,6.20
2018-11-25T14:34:59.347Z,6.20
2018-11-25T14:37:27.649Z,6.20
2018-11-25T14:39:55.976Z,6.20
2018-11-25T14:42:24.685Z,6.20
2018-11-25T14:44:53.666Z,6.20
2018-11-25T14:47:21.966Z,6.20
2018-11-25T14:49:50.331Z,6.20
2018-11-25T14:52:18.659Z,6.20
2018-11-25T14:54:51.293Z,6.20
2018-11-25T14:57:15.362Z,6.20
2018-11-25T14:59:43.711Z,6.20
2018-11-25T15:02:12.016Z,6.10
2018-11-25T15:04:40.360Z,6.10
2018-11-25T15:07:08.717Z,6.00
2018-11-25T15:09:37.060Z,6.00
2018-11-25T15:12:05.615Z,6.00
2018-11-25T15:14:34.036Z,6.00
2018-11-25T15:17:02.366Z,6.00
2018-11-25T15:19:30.762Z,5.90
2018-11-25T15:21:59.082Z,5.90
2018-11-25T15:24:27.405Z,5.90
2018-11-25T15:26:55.714Z,5.90
2018-11-25T15:29:24.034Z,5.90
2018-11-25T15:31:52.425Z,5.90
2018-11-25T15:34:20.762Z,5.80
2018-11-25T15:36:49.107Z,5.80
2018-11-25T15:39:17.408Z,5.70
2018-11-25T15:41:45.818Z,5.60
2018-11-25T15:44:15.818Z,5.60
2018-11-25T15:46:44.178Z,5.70
2018-11-25T15:49:12.541Z,5.60
2018-11-25T15:51:40.861Z,5.60
2018-11-25T15:54:09.254Z,5.60
2018-11-25T15:56:38.652Z,5.60
2018-11-25T15:59:06.964Z,5.50
2018-11-25T16:01:37.460Z,5.50
2018-11-25T16:04:11.077Z,5.50
2018-11-25T16:06:39.533Z,5.40
2018-11-25T16:09:08.838Z,5.30
2018-11-25T16:11:37.168Z,5.40
2018-11-25T16:14:05.613Z,5.30
2018-11-25T16:16:33.924Z,5.20
2018-11-25T16:19:02.348Z,5.20
2018-11-25T16:21:30.647Z,5.30
2018-11-25T16:23:58.992Z,5.30
2018-11-25T16:26:29.585Z,5.30
2018-11-25T16:29:01.446Z,5.30
2018-11-25T16:31:29.797Z,5.30
2018-11-25T16:33:58.114Z,5.20
2018-11-25T16:36:26.423Z,5.10
2018-11-25T16:38:54.746Z,5.10
2018-11-25T16:41:23.070Z,5.00
2018-11-25T16:43:51.446Z,5.00
2018-11-25T16:46:19.765Z,5.00
2018-11-25T16:48:48.072Z,4.90
2018-11-25T16:51:16.504Z,4.90
2018-11-25T16:53:44.942Z,4.90
2018-11-25T16:56:13.267Z,4.90
2018-11-25T16:58:41.574Z,4.90
2018-11-25T17:01:10.448Z,4.90
2018-11-25T17:03:38.276Z,4.90
2018-11-25T17:06:10.511Z,4.90
2018-11-25T17:08:41.525Z,4.90
2018-11-25T17:11:09.977Z,4.90
2018-11-25T17:13:38.288Z,4.90
2018-11-25T17:16:07.457Z,5.00
2018-11-25T17:18:35.939Z,5.10
2018-11-25T17:21:04.585Z,5.10
2018-11-25T17:23:33.274Z,5.10
2018-11-25T17:26:01.615Z,5.10
2018-11-25T17:28:29.969Z,5.00
2018-11-25T17:30:58.273Z,5.00
2018-11-25T17:33:26.584Z,5.00
2018-11-25T17:35:55.488Z,5.00
2018-11-25T17:38:24.936Z,5.00
2018-11-25T17:40:52.235Z,5.10
2018-11-25T17:43:22.828Z,5.00
2018-11-25T17:45:51.145Z,5.10
2018-11-25T17:48:20.369Z,5.00
2018-11-25T17:50:48.751Z,5.10
2018-11-25T17:53:20.816Z,5.00
2018-11-25T17:55:45.507Z,5.00
2018-11-25T17:58:13.891Z,5.00
2018-11-25T18:00:46.893Z,5.00
2018-11-25T18:03:22.311Z,5.00
2018-11-25T18:05:50.727Z,5.00
2018-11-25T18:08:19.026Z,5.00
2018-11-25T18:10:47.361Z,4.90
2018-11-25T18:13:16.646Z,4.90
2018-11-25T18:15:45.001Z,4.90
2018-11-25T18:18:16.149Z,5.00
2018-11-25T18:20:47.314Z,5.00
2018-11-25T18:23:15.754Z,5.00
2018-11-25T18:25:44.031Z,4.90
2018-11-25T18:28:12.409Z,4.90
2018-11-25T18:30:40.715Z,4.80
2018-11-25T18:33:09.034Z,4.70
2018-11-25T18:35:37.421Z,4.80
2018-11-25T18:38:06.333Z,4.80
2018-11-25T18:40:34.646Z,4.80
2018-11-25T18:43:02.954Z,4.90
2018-11-25T18:45:31.674Z,4.90
2018-11-25T18:48:00.038Z,4.80
2018-11-25T18:50:28.352Z,4.80
2018-11-25T18:52:56.734Z,4.80
2018-11-25T18:55:23.991Z,4.70
2018-11-25T18:57:52.282Z,4.70
2018-11-25T19:00:24.986Z,4.70
2018-11-25T19:02:53.347Z,4.70
2018-11-25T19:05:21.646Z,4.70
2018-11-25T19:07:50.009Z,4.60
2018-11-25T19:10:19.073Z,4.60
2018-11-25T19:12:47.454Z,4.60
2018-11-25T19:15:16.998Z,4.60
2018-11-25T19:17:45.318Z,4.60
2018-11-25T19:20:14.901Z,4.50
2018-11-25T19:22:44.135Z,4.50
2018-11-25T19:25:14.814Z,4.50
2018-11-25T19:27:43.640Z,4.50
2018-11-25T19:30:13.076Z,4.50
2018-11-25T19:32:41.725Z,4.60
2018-11-25T19:35:11.182Z,4.50
2018-11-25T19:37:39.729Z,4.50
2018-11-25T19:40:10.264Z,4.60
2018-11-25T19:42:38.613Z,4.50
2018-11-25T19:45:09.905Z,4.50
2018-11-25T19:47:38.210Z,4.50
2018-11-25T19:50:10.185Z,4.50
2018-11-25T19:52:38.589Z,4.50
2018-11-25T19:55:07.705Z,4.60
2018-11-25T19:57:36.021Z,4.60
2018-11-25T20:00:06.274Z,4.60
2018-11-25T20:02:34.641Z,4.70
2018-11-25T20:05:02.988Z,4.70
2018-11-25T20:07:31.313Z,4.60
2018-11-25T20:09:59.895Z,4.70
2018-11-25T20:12:33.639Z,4.60
2018-11-25T20:15:02.073Z,4.60
2018-11-25T20:17:30.434Z,4.60
2018-11-25T20:20:02.595Z,4.70
2018-11-25T20:22:30.990Z,4.70
2018-11-25T20:24:59.713Z,4.70
2018-11-25T20:27:33.401Z,4.70
2018-11-25T20:30:01.787Z,4.70
2018-11-25T20:32:35.473Z,4.70
2018-11-25T20:35:03.870Z,4.80
2018-11-25T20:37:32.497Z,4.70
2018-11-25T20:40:00.903Z,4.70
2018-11-25T20:42:29.234Z,4.80
2018-11-25T20:44:57.557Z,4.90
2018-11-25T20:47:25.890Z,4.90
2018-11-25T20:49:54.205Z,4.90
2018-11-25T20:52:45.462Z,5.00
2018-11-25T20:55:16.942Z,5.00
2018-11-25T20:57:46.619Z,5.00
2018-11-25T21:00:16.991Z,5.00
2018-11-25T21:02:50.361Z,5.00
2018-11-25T21:05:19.588Z,5.00
2018-11-25T21:07:47.945Z,5.00
2018-11-25T21:10:18.430Z,5.00
2018-11-25T21:12:51.003Z,5.10
2018-11-25T21:15:19.325Z,5.10
2018-11-25T21:17:47.786Z,5.00
2018-11-25T21:20:22.018Z,5.10
2018-11-25T21:22:50.410Z,5.10
2018-11-25T21:25:19.785Z,5.10
2018-11-25T21:27:48.206Z,5.00
2018-11-25T21:30:19.325Z,5.10
2018-11-25T21:32:48.607Z,5.10
2018-11-25T21:35:17.002Z,5.20
2018-11-25T21:37:45.333Z,5.20
2018-11-25T21:40:14.717Z,5.10
2018-11-25T21:42:43.043Z,5.10
2018-11-25T21:45:15.291Z,5.10
2018-11-25T21:47:43.717Z,5.10
2018-11-25T21:50:27.774Z,5.10
2018-11-25T21:52:56.070Z,5.10
2018-11-25T21:55:24.973Z,5.10
2018-11-25T21:57:53.354Z,5.20
2018-11-25T22:00:22.703Z,5.20
2018-11-25T22:02:51.029Z,5.20
2018-11-25T22:05:20.084Z,5.20
2018-11-25T22:07:47.787Z,5.20
2018-11-25T22:10:18.346Z,5.20
2018-11-25T22:12:46.927Z,5.20
2018-11-25T22:15:18.030Z,5.20
2018-11-25T22:17:46.395Z,5.20
2018-11-25T22:20:15.314Z,5.10
2018-11-25T22:22:43.649Z,5.10
2018-11-25T22:25:16.664Z,5.10
2018-11-25T22:27:48.915Z,5.10
2018-11-25T22:30:21.201Z,5.10
2018-11-25T22:32:49.531Z,5.00
2018-11-25T22:35:19.018Z,5.10
2018-11-25T22:37:47.745Z,5.10
2018-11-25T22:40:16.891Z,5.10
2018-11-25T22:42:46.322Z,5.10
2018-11-25T22:45:15.631Z,5.10
2018-11-25T22:47:45.484Z,5.10
2018-11-25T22:50:15.524Z,5.10
2018-11-25T22:52:44.025Z,5.20
2018-11-25T22:55:21.828Z,5.30
2018-11-25T22:57:50.262Z,5.20
2018-11-25T23:00:24.006Z,5.20
2018-11-25T23:02:52.317Z,5.20
2018-11-25T23:05:31.949Z,5.30
2018-11-25T23:08:00.286Z,5.20
2018-11-25T23:10:28.722Z,5.20
2018-11-25T23:12:57.055Z,5.20
2018-11-25T23:15:25.350Z,5.20
2018-11-25T23:17:53.674Z,5.20
2018-11-25T23:20:21.987Z,5.20
2018-11-25T23:22:50.300Z,5.20
2018-11-25T23:25:19.700Z,5.20
2018-11-25T23:27:48.630Z,5.20
2018-11-25T23:30:17.693Z,5.20
2018-11-25T23:32:46.116Z,5.20
2018-11-25T23:35:17.202Z,5.30
2018-11-25T23:37:45.665Z,5.20
2018-11-25T23:40:13.995Z,5.30
2018-11-25T23:42:42.325Z,5.30
2018-11-25T23:45:14.719Z,5.30
2018-11-25T23:47:43.145Z,5.20
2018-11-25T23:50:13.265Z,5.30
2018-11-25T23:52:42.534Z,5.20
2018-11-25T23:55:11.918Z,5.20
2018-11-25T23:57:40.289Z,5.20
